Terminal Aerodrome Forecast
Issued by NWS Wilmington, OH

Current Version | Previous Version | Graphics & Text | Print | Product List | Glossary On
Versions: 1 2 3 4 5 6 7 8 9 10 11 12 13 14 15 16 17 18 19 20 21 22 23 24
990
FTUS41 KILN 170858 AAA
TAFCVG
TAF AMD
KCVG 170858Z 1709/1812 25012KT P6SM OVC035
     FM171400 28013G25KT P6SM SCT045
     FM172200 28008KT P6SM SCT250
     FM180300 36005KT P6SM SCT250
     FM180800 06005KT P6SM BKN060=

USA.gov is the U.S. government's official web portal to all federal, state and local government web resources and services.